Time;durP1;ratioP1;P1;durP2;ratioP2;P2;SDS_P1;SDS_P2;PMS_P1;PMS_P2;Temp;Humidity;BMP_temperature;BMP_pressure;BME280_temperature;BME280_humidity;BME280_pressure;Samples;Min_cycle;Max_cycle;Signal;HPM_P1;HPM_P2
2023/07/27 00:01:27;;;;;;;3.00;1.30;;;;;;;;;;4983298;28;20529;-78
2023/07/27 00:03:54;;;;;;;3.40;1.40;;;;;;;;;;4987200;28;20525;-77
2023/07/27 00:06:20;;;;;;;7.43;2.45;;;;;;;;;;4995071;28;20026;-77
2023/07/27 00:08:46;;;;;;;7.88;1.52;;;10.90;99.90;;;;;;4998308;28;20632;-76
2023/07/27 00:11:12;;;;;;;1.95;1.20;;;;;;;;;;4986911;28;20741;-77
2023/07/27 00:13:37;;;;;;;3.22;1.50;;;10.90;99.90;;;;;;4995624;28;20085;-78
2023/07/27 00:16:03;;;;;;;2.60;1.23;;;;;;;;;;4991227;28;20057;-77
2023/07/27 00:18:29;;;;;;;2.97;1.45;;;;;;;;;;5000328;28;20034;-77
2023/07/27 00:20:55;;;;;;;3.40;1.88;;;;;;;;;;4994018;28;20041;-77
2023/07/27 00:23:21;;;;;;;3.42;1.90;;;;;;;;;;4993168;28;20397;-77
2023/07/27 00:25:47;;;;;;;3.28;1.70;;;;;;;;;;4994265;28;20370;-77
2023/07/27 00:28:13;;;;;;;1.80;1.10;;;;;;;;;;4989701;28;20037;-78
2023/07/27 00:30:39;;;;;;;3.80;1.40;;;;;;;;;;4995914;28;20472;-76
2023/07/27 00:33:05;;;;;;;3.10;1.08;;;;;;;;;;4997236;28;20463;-77
2023/07/27 00:35:31;;;;;;;4.53;1.67;;;;;;;;;;4999745;28;20420;-77
2023/07/27 00:37:57;;;;;;;4.32;1.45;;;;;;;;;;4992968;28;20028;-78
2023/07/27 00:40:23;;;;;;;3.92;1.50;;;10.70;99.90;;;;;;4989104;28;20034;-77
2023/07/27 00:42:48;;;;;;;3.95;1.70;;;;;;;;;;4997544;28;20340;-77
2023/07/27 00:45:14;;;;;;;2.45;1.58;;;;;;;;;;4994643;28;20057;-78
2023/07/27 00:47:40;;;;;;;6.65;1.58;;;;;;;;;;4993730;28;20038;-77
2023/07/27 00:50:07;;;;;;;2.00;1.35;;;;;;;;;;4982773;28;20121;-77
2023/07/27 00:52:33;;;;;;;2.80;1.50;;;;;;;;;;4990833;28;20615;-77
2023/07/27 00:54:59;;;;;;;2.65;1.33;;;;;;;;;;5001342;28;20060;-77
2023/07/27 00:57:25;;;;;;;3.95;1.83;;;;;;;;;;4995864;28;20034;-77
2023/07/27 00:59:51;;;;;;;2.92;1.65;;;11.20;99.90;;;;;;4992851;28;20026;-77
2023/07/27 01:02:17;;;;;;;3.45;1.67;;;;;;;;;;4995215;28;20030;-79
2023/07/27 01:04:43;;;;;;;2.17;1.10;;;;;;;;;;4991131;28;20030;-77
2023/07/27 01:07:09;;;;;;;2.92;1.38;;;;;;;;;;5000210;28;20474;-77
2023/07/27 01:09:35;;;;;;;2.70;1.08;;;;;;;;;;4999407;28;20038;-76
2023/07/27 01:12:20;;;;;;;4.63;2.05;;;10.20;99.90;;;;;;4991764;28;20393;-78
2023/07/27 01:15:06;;;;;;;2.97;1.70;;;10.40;99.90;;;;;;4996786;28;20131;-77
2023/07/27 01:17:41;;;;;;;5.32;1.25;;;10.40;99.90;;;;;;4997366;28;20022;-77
2023/07/27 01:20:18;;;;;;;7.00;1.65;;;10.80;99.90;;;;;;4999325;28;20056;-78
2023/07/27 01:23:27;;;;;;;3.78;1.92;;;10.60;99.90;;;;;;4995032;28;20029;-78
2023/07/27 01:25:53;;;;;;;5.68;1.55;;;;;;;;;;5001111;28;20049;-78
2023/07/27 01:28:56;;;;;;;3.70;1.70;;;11.00;99.90;;;;;;5002507;28;20042;-77
2023/07/27 01:31:24;;;;;;;3.08;1.63;;;10.80;99.90;;;;;;5003607;28;20030;-77
2023/07/27 01:33:58;;;;;;;6.57;1.70;;;10.80;99.90;;;;;;4997293;28;20034;-77
2023/07/27 01:36:27;;;;;;;3.25;1.90;;;10.60;99.90;;;;;;4996640;28;20033;-77
2023/07/27 01:38:53;;;;;;;4.45;2.15;;;;;;;;;;4996859;28;20037;-78
2023/07/27 01:41:20;;;;;;;6.50;1.88;;;;;;;;;;5006401;28;20044;-77
2023/07/27 01:43:47;;;;;;;3.50;1.65;;;9.50;99.90;;;;;;5002153;28;20022;-78
2023/07/27 01:46:14;;;;;;;3.60;2.20;;;10.80;99.90;;;;;;4997541;28;20041;-77
2023/07/27 01:48:42;;;;;;;8.90;1.38;;;10.80;99.90;;;;;;4998571;28;20034;-78
2023/07/27 01:51:09;;;;;;;3.47;1.67;;;10.80;99.90;;;;;;5000527;28;20060;-77
2023/07/27 01:53:36;;;;;;;4.93;1.90;;;10.50;99.90;;;;;;4993487;28;20034;-76
2023/07/27 01:56:04;;;;;;;3.45;1.92;;;10.70;99.90;;;;;;4995337;28;20025;-77
2023/07/27 01:58:30;;;;;;;3.10;1.77;;;10.70;99.90;;;;;;4993687;28;20508;-77
2023/07/27 02:00:57;;;;;;;4.03;1.77;;;10.50;99.90;;;;;;4994032;28;20033;-77
2023/07/27 02:03:23;;;;;;;4.78;1.80;;;10.60;99.90;;;;;;4991112;28;20041;-78
2023/07/27 02:05:49;;;;;;;2.85;1.92;;;;;;;;;;4998352;28;20325;-78
2023/07/27 02:08:15;;;;;;;4.70;1.83;;;;;;;;;;4996444;28;20030;-77
2023/07/27 02:10:41;;;;;;;4.88;2.30;;;;;;;;;;4991684;28;20044;-77
2023/07/27 02:13:23;;;;;;;3.67;2.00;;;10.20;99.90;;;;;;4998877;28;20034;-78
2023/07/27 02:16:00;;;;;;;3.50;2.10;;;10.70;99.90;;;;;;4994814;28;20034;-77
2023/07/27 02:18:27;;;;;;;4.40;1.73;;;10.40;99.90;;;;;;4993070;28;20425;-77
2023/07/27 02:20:54;;;;;;;5.63;1.77;;;;;;;;;;4997704;28;20122;-78
2023/07/27 02:23:21;;;;;;;5.97;1.88;;;10.50;99.90;;;;;;4995679;28;21592;-77
2023/07/27 02:25:47;;;;;;;3.58;1.88;;;10.30;99.90;;;;;;4993373;28;20026;-78
2023/07/27 02:28:12;;;;;;;5.03;2.03;;;;;;;;;;4997010;28;20040;-77
2023/07/27 02:30:38;;;;;;;5.93;2.17;;;;;;;;;;4984562;28;20029;-78
2023/07/27 02:33:05;;;;;;;5.40;2.22;;;;;;;;;;4988301;28;20052;-77
2023/07/27 02:35:31;;;;;;;3.78;1.95;;;;;;;;;;4999406;28;20030;-78
2023/07/27 02:37:57;;;;;;;3.60;2.13;;;;;;;;;;4995494;28;20060;-78
2023/07/27 02:40:22;;;;;;;5.30;1.70;;;10.70;99.90;;;;;;4989833;28;20108;-78
2023/07/27 02:42:48;;;;;;;3.65;1.95;;;;;;;;;;4994407;28;20623;-78
2023/07/27 02:45:14;;;;;;;5.25;2.22;;;;;;;;;;4994009;28;20489;-77
2023/07/27 02:47:40;;;;;;;3.72;1.90;;;;;;;;;;4988757;28;20595;-78
2023/07/27 02:50:06;;;;;;;4.28;2.20;;;;;;;;;;4994468;28;20123;-78
2023/07/27 02:52:32;;;;;;;8.88;1.90;;;;;;;;;;4988738;28;20073;-78
2023/07/27 02:54:58;;;;;;;3.00;1.65;;;;;;;;;;4997131;28;20497;-78
2023/07/27 02:57:24;;;;;;;5.53;2.33;;;;;;;;;;4996853;28;20437;-77
2023/07/27 02:59:50;;;;;;;5.53;2.78;;;;;;;;;;4991284;28;20388;-77
2023/07/27 03:02:17;;;;;;;2.97;2.22;;;10.80;99.90;;;;;;4987371;28;20030;-77
2023/07/27 03:04:43;;;;;;;2.85;1.40;;;;;;;;;;4981616;28;20033;-77
2023/07/27 03:07:09;;;;;;;6.55;2.13;;;;;;;;;;4992327;28;20401;-79
2023/07/27 03:09:35;;;;;;;4.75;2.50;;;;;;;;;;4981945;28;20068;-78
2023/07/27 03:12:01;;;;;;;8.32;2.13;;;;;;;;;;5008428;28;20029;-77
2023/07/27 03:14:27;;;;;;;5.85;2.17;;;;;;;;;;4998030;28;20460;-76
2023/07/27 03:16:53;;;;;;;5.35;2.03;;;;;;;;;;4990750;28;20026;-78
2023/07/27 03:19:18;;;;;;;4.50;2.60;;;;;;;;;;4995953;28;20022;-78
2023/07/27 03:21:45;;;;;;;5.47;2.13;;;;;;;;;;4995883;28;20084;-77
2023/07/27 03:24:16;;;;;;;3.88;1.73;;;;;;;;;;4990197;28;20030;-78
2023/07/27 03:26:42;;;;;;;4.40;1.80;;;;;;;;;;4997999;28;20112;-78
2023/07/27 03:29:08;;;;;;;3.97;2.00;;;;;;;;;;4992868;28;20030;-78
2023/07/27 03:36:51;;;;;;;4.60;1.85;;;;;;;;;;4975119;28;20181;-79
2023/07/27 03:39:17;;;;;;;3.38;1.77;;;;;;;;;;4986439;28;20153;-78
2023/07/27 03:41:42;;;;;;;5.97;2.20;;;;;;;;;;4986437;28;20370;-78
2023/07/27 03:44:11;;;;;;;7.80;2.22;;;;;;;;;;4983113;28;20494;-78
2023/07/27 03:46:37;;;;;;;4.47;2.40;;;;;;;;;;4978333;28;20036;-79
2023/07/27 03:49:03;;;;;;;9.45;1.67;;;;;;;;;;4967770;28;20039;-79
2023/07/27 03:51:29;;;;;;;3.55;1.70;;;;;;;;;;4980768;28;20462;-78
2023/07/27 03:53:55;;;;;;;3.67;1.88;;;;;;;;;;4983525;28;20426;-78
2023/07/27 03:56:21;;;;;;;7.32;2.33;;;;;;;;;;4977735;28;20406;-79
2023/07/27 03:58:47;;;;;;;4.53;2.40;;;;;;;;;;4976024;28;20393;-79
2023/07/27 04:01:13;;;;;;;3.75;1.95;;;;;;;;;;4971666;28;20084;-79
2023/07/27 04:03:38;;;;;;;4.38;2.40;;;;;;;;;;4956345;28;20042;-79
2023/07/27 04:06:04;;;;;;;3.90;2.00;;;;;;;;;;4965550;28;20033;-79
2023/07/27 04:08:30;;;;;;;8.07;1.95;;;;;;;;;;4957750;28;20520;-77
2023/07/27 04:10:56;;;;;;;6.47;2.15;;;;;;;;;;4982422;28;20549;-77
2023/07/27 04:13:22;;;;;;;3.80;2.25;;;;;;;;;;4972228;28;20618;-79
2023/07/27 04:15:48;;;;;;;5.25;2.30;;;;;;;;;;4967453;28;20023;-78
2023/07/27 04:18:14;;;;;;;3.83;1.92;;;;;;;;;;4987510;28;20080;-78
2023/07/27 04:20:40;;;;;;;6.80;1.77;;;;;;;;;;4978130;28;20073;-79
2023/07/27 04:23:06;;;;;;;4.45;1.92;;;;;;;;;;4987340;28;20022;-78
2023/07/27 04:25:32;;;;;;;4.38;2.42;;;;;;;;;;4981710;28;20038;-79
2023/07/27 04:27:58;;;;;;;3.90;1.90;;;;;;;;;;4973635;28;20042;-78
2023/07/27 04:30:24;;;;;;;4.15;2.25;;;;;;;;;;4980658;28;20045;-78
2023/07/27 04:32:50;;;;;;;4.47;1.90;;;;;;;;;;4952008;28;20034;-79
2023/07/27 04:35:16;;;;;;;4.88;2.67;;;;;;;;;;4979091;28;20072;-78
2023/07/27 04:37:42;;;;;;;4.53;2.13;;;;;;;;;;4978692;28;20050;-78
2023/07/27 04:40:08;;;;;;;4.47;2.40;;;;;;;;;;4990421;28;20053;-78
2023/07/27 04:42:34;;;;;;;4.80;2.35;;;;;;;;;;4989036;28;20033;-79
2023/07/27 04:45:00;;;;;;;3.83;1.88;;;;;;;;;;4979537;28;20031;-78
2023/07/27 04:47:26;;;;;;;3.97;2.00;;;;;;;;;;4974431;28;20093;-79
2023/07/27 04:49:52;;;;;;;6.30;1.67;;;;;;;;;;4992204;28;20022;-77
2023/07/27 04:52:17;;;;;;;5.32;2.40;;;;;;;;;;4984770;28;20057;-78
2023/07/27 04:54:43;;;;;;;5.82;2.20;;;;;;;;;;4986348;28;20037;-79
2023/07/27 04:57:09;;;;;;;5.25;2.38;;;;;;;;;;4978670;28;20031;-77
2023/07/27 04:59:35;;;;;;;6.82;1.80;;;;;;;;;;4985043;28;20118;-77
2023/07/27 05:02:02;;;;;;;3.10;2.10;;;;;;;;;;4984458;28;20044;-78
2023/07/27 05:04:27;;;;;;;3.88;2.10;;;;;;;;;;4978773;28;20038;-78
2023/07/27 05:06:53;;;;;;;2.45;1.33;;;;;;;;;;4978616;28;20084;-76
2023/07/27 05:09:20;;;;;;;8.75;1.42;;;;;;;;;;4981475;28;20037;-77
2023/07/27 05:11:46;;;;;;;5.28;1.45;;;;;;;;;;4985762;28;20549;-79
2023/07/27 05:14:12;;;;;;;8.82;1.63;;;;;;;;;;4988415;28;20035;-77
2023/07/27 05:16:38;;;;;;;5.22;2.00;;;;;;;;;;4981705;28;20049;-76
2023/07/27 05:19:04;;;;;;;3.05;1.65;;;;;;;;;;4982117;28;20019;-78
2023/07/27 05:21:30;;;;;;;5.93;2.03;;;;;;;;;;4985335;28;20049;-78
2023/07/27 05:23:56;;;;;;;6.50;1.90;;;;;;;;;;4980537;28;20034;-78
2023/07/27 05:26:22;;;;;;;3.72;2.00;;;;;;;;;;4968834;28;20046;-79
2023/07/27 05:28:47;;;;;;;4.15;1.70;;;;;;;;;;4970940;28;20046;-80
2023/07/27 05:31:14;;;;;;;4.20;1.90;;;;;;;;;;4974390;28;20029;-79
2023/07/27 05:33:40;;;;;;;2.97;1.52;;;;;;;;;;4979192;28;20104;-79
2023/07/27 05:36:06;;;;;;;3.63;1.77;;;;;;;;;;4985248;28;20031;-80
2023/07/27 05:38:31;;;;;;;2.25;1.35;;;14.70;99.90;;;;;;4989610;28;20026;-78
2023/07/27 05:41:01;;;;;;;3.05;1.30;;;;;;;;;;4986429;28;20030;-79
2023/07/27 05:43:27;;;;;;;2.10;0.90;;;;;;;;;;4980663;28;20531;-79
2023/07/27 05:45:52;;;;;;;2.05;1.00;;;;;;;;;;4987316;28;20350;-77
2023/07/27 05:48:18;;;;;;;5.22;1.92;;;;;;;;;;4990427;28;20027;-78
2023/07/27 05:50:44;;;;;;;8.55;1.77;;;;;;;;;;4986399;28;20118;-78
2023/07/27 05:53:10;;;;;;;2.35;0.98;;;15.20;99.90;;;;;;4987935;28;20122;-78
2023/07/27 05:55:36;;;;;;;2.47;1.25;;;;;;;;;;4986848;28;20489;-78
2023/07/27 05:58:02;;;;;;;2.10;1.13;;;;;;;;;;4991513;28;20034;-78
2023/07/27 06:00:28;;;;;;;1.88;0.73;;;;;;;;;;4979478;28;20026;-79
2023/07/27 06:02:54;;;;;;;6.35;1.10;;;;;;;;;;4985910;28;20030;-78
2023/07/27 06:05:20;;;;;;;2.35;1.05;;;;;;;;;;4970160;28;20174;-78
2023/07/27 06:07:46;;;;;;;4.05;1.35;;;;;;;;;;4974354;28;20050;-78
2023/07/27 06:10:12;;;;;;;1.95;1.00;;;;;;;;;;4986299;28;20026;-78
2023/07/27 06:12:38;;;;;;;4.35;1.20;;;;;;;;;;4990901;28;20031;-78
2023/07/27 06:15:04;;;;;;;2.53;1.45;;;;;;;;;;4977240;28;20030;-78
2023/07/27 06:17:30;;;;;;;2.30;0.80;;;;;;;;;;4985130;28;20031;-79
2023/07/27 06:19:56;;;;;;;2.05;1.10;;;;;;;;;;4982089;28;20114;-77
2023/07/27 06:22:22;;;;;;;3.22;1.13;;;;;;;;;;4983318;28;20100;-78
2023/07/27 06:24:48;;;;;;;2.38;1.00;;;;;;;;;;4983009;28;20446;-77
2023/07/27 06:27:14;;;;;;;1.98;1.02;;;;;;;;;;4980280;28;20351;-78
2023/07/27 06:29:40;;;;;;;2.95;0.85;;;;;;;;;;4969837;28;20057;-77
2023/07/27 06:32:06;;;;;;;1.70;0.80;;;17.70;99.90;;;;;;4964300;28;21233;-77
2023/07/27 06:34:32;;;;;;;2.70;1.05;;;;;;;;;;4964462;28;20030;-77
2023/07/27 06:36:58;;;;;;;4.28;1.27;;;;;;;;;;4972516;28;20520;-78
2023/07/27 06:39:24;;;;;;;1.35;0.70;;;;;;;;;;4980434;28;20025;-77
2023/07/27 06:41:50;;;;;;;4.07;0.90;;;17.90;99.90;;;;;;4971015;28;20030;-77
2023/07/27 06:44:16;;;;;;;2.72;1.00;;;;;;;;;;4971432;28;20030;-78
2023/07/27 06:46:42;;;;;;;2.53;0.90;;;;;;;;;;4987885;28;20045;-77
2023/07/27 06:49:07;;;;;;;1.55;0.73;;;17.50;99.90;;;;;;4981286;28;20121;-77
2023/07/27 06:51:34;;;;;;;2.97;0.50;;;;;;;;;;4978821;28;20696;-77
2023/07/27 06:54:00;;;;;;;2.25;0.63;;;;;;;;;;4966088;28;20529;-77
2023/07/27 06:56:26;;;;;;;2.17;0.98;;;17.60;99.90;;;;;;4985528;28;20266;-77
2023/07/27 06:58:51;;;;;;;1.95;0.70;;;;;;;;;;4976977;28;20042;-77
2023/07/27 07:01:17;;;;;;;2.92;0.95;;;;;;;;;;4970561;28;20030;-78
2023/07/27 07:03:43;;;;;;;2.97;0.90;;;;;;;;;;4971667;28;20454;-78
2023/07/27 07:06:09;;;;;;;2.83;1.08;;;;;;;;;;4970629;28;20014;-76
2023/07/27 07:08:35;;;;;;;3.70;0.77;;;;;;;;;;4979928;28;20069;-76
2023/07/27 07:11:01;;;;;;;1.80;0.77;;;;;;;;;;4971866;28;20034;-76
2023/07/27 07:13:27;;;;;;;3.65;1.00;;;18.20;99.90;;;;;;4980934;28;20491;-76
2023/07/27 07:15:53;;;;;;;1.73;1.00;;;;;;;;;;4981592;28;20517;-76
2023/07/27 07:18:19;;;;;;;1.92;0.73;;;;;;;;;;4982883;28;20032;-77
2023/07/27 07:20:46;;;;;;;2.17;0.80;;;;;;;;;;4977643;28;20062;-78
2023/07/27 07:23:12;;;;;;;2.00;0.98;;;;;;;;;;4961542;28;20039;-77
2023/07/27 07:25:40;;;;;;;2.53;1.05;;;;;;;;;;4967970;28;20049;-76
2023/07/27 07:28:06;;;;;;;3.80;0.88;;;;;;;;;;4957815;28;20046;-78
2023/07/27 07:30:32;;;;;;;1.75;0.60;;;;;;;;;;4984111;28;20042;-76
2023/07/27 07:32:58;;;;;;;6.22;1.02;;;;;;;;;;4980422;28;20046;-76
2023/07/27 07:35:24;;;;;;;1.98;0.88;;;;;;;;;;4967192;28;20544;-78
2023/07/27 07:37:50;;;;;;;1.92;0.82;;;;;;;;;;4981344;28;20602;-78
2023/07/27 07:40:17;;;;;;;1.33;0.52;;;;;;;;;;4970965;28;20037;-78
2023/07/27 07:42:43;;;;;;;1.33;0.75;;;;;;;;;;4974316;28;20026;-77
2023/07/27 07:45:09;;;;;;;1.67;0.73;;;;;;;;;;4977474;28;20061;-78
2023/07/27 07:47:35;;;;;;;3.58;0.98;;;;;;;;;;4985761;28;20546;-78
2023/07/27 07:50:01;;;;;;;2.53;1.05;;;;;;;;;;4974997;28;20114;-79
2023/07/27 07:52:27;;;;;;;2.22;0.68;;;;;;;;;;4973023;28;20038;-77
2023/07/27 07:54:53;;;;;;;1.77;0.73;;;;;;;;;;4970323;28;20030;-78
2023/07/27 07:57:20;;;;;;;1.85;0.80;;;19.50;99.90;;;;;;4980648;28;20054;-77
2023/07/27 07:59:46;;;;;;;1.85;0.70;;;;;;;;;;4964704;28;20037;-80
2023/07/27 08:02:12;;;;;;;1.40;0.70;;;;;;;;;;4965468;28;20026;-79
2023/07/27 08:04:38;;;;;;;4.07;1.00;;;19.80;99.90;;;;;;4963619;28;20648;-78
2023/07/27 08:07:04;;;;;;;1.88;1.10;;;;;;;;;;4965838;28;20729;-80
2023/07/27 08:09:30;;;;;;;2.03;0.73;;;;;;;;;;4980335;28;20022;-79
2023/07/27 08:11:55;;;;;;;3.92;0.80;;;20.10;99.90;;;;;;4979673;28;20030;-78
2023/07/27 08:14:23;;;;;;;1.92;0.70;;;;;;;;;;4977604;28;20098;-78
2023/07/27 08:16:49;;;;;;;2.83;0.80;;;20.40;99.90;;;;;;4981890;28;20046;-78
2023/07/27 08:19:15;;;;;;;0.80;0.57;;;;;;;;;;4980547;28;20042;-78
2023/07/27 08:21:41;;;;;;;1.85;0.80;;;;;;;;;;4983488;28;20524;-78
2023/07/27 08:24:07;;;;;;;6.05;0.88;;;;;;;;;;4962792;28;20034;-78
2023/07/27 08:26:33;;;;;;;1.40;0.50;;;;;;;;;;4976923;28;20069;-79
2023/07/27 08:28:58;;;;;;;1.60;0.90;;;;;;;;;;4980687;28;20041;-79
2023/07/27 08:31:24;;;;;;;2.88;0.82;;;;;;;;;;4983807;28;20030;-78
2023/07/27 08:33:50;;;;;;;4.60;0.90;;;20.80;99.90;;;;;;4977161;28;20038;-78
2023/07/27 08:36:16;;;;;;;3.92;0.65;;;20.60;99.90;;;;;;4973664;28;20473;-78
2023/07/27 08:38:42;;;;;;;14.55;0.90;;;;;;;;;;4977065;28;20097;-78
2023/07/27 08:41:08;;;;;;;1.92;0.70;;;;;;;;;;4985474;28;20026;-78
2023/07/27 08:43:34;;;;;;;2.85;1.08;;;;;;;;;;4979668;28;20054;-79
2023/07/27 08:46:00;;;;;;;6.47;1.13;;;;;;;;;;4981614;28;20034;-77
2023/07/27 08:48:28;;;;;;;3.40;0.50;;;;;;;;;;4984436;28;20130;-78
2023/07/27 08:50:54;;;;;;;2.58;0.80;;;;;;;;;;4969760;28;20037;-80
2023/07/27 08:53:20;;;;;;;2.72;1.05;;;;;;;;;;4971151;28;20554;-78
2023/07/27 08:55:46;;;;;;;2.30;0.65;;;;;;;;;;4984285;28;20117;-79
2023/07/27 08:58:12;;;;;;;1.88;0.60;;;20.50;99.90;;;;;;4989562;28;20022;-78
2023/07/27 09:00:38;;;;;;;1.42;0.50;;;;;;;;;;4983004;28;20474;-79
2023/07/27 09:03:05;;;;;;;3.05;0.73;;;;;;;;;;4979713;28;20473;-79
2023/07/27 09:05:54;;;;;;;5.00;0.95;;;20.60;99.90;;;;;;4983193;28;20076;-78
2023/07/27 09:08:21;;;;;;;2.13;0.63;;;;;;;;;;4982372;28;20038;-78
2023/07/27 09:10:47;;;;;;;0.70;0.50;;;;;;;;;;4985332;28;20019;-78
2023/07/27 09:13:13;;;;;;;1.90;0.60;;;;;;;;;;4978742;28;20066;-78
2023/07/27 09:15:43;;;;;;;1.48;0.50;;;20.60;99.90;;;;;;4986741;28;20061;-78
2023/07/27 09:18:14;;;;;;;1.20;0.90;;;20.60;99.90;;;;;;4983518;28;20027;-77
2023/07/27 09:20:40;;;;;;;4.05;1.10;;;;;;;;;;4989690;28;20041;-77
2023/07/27 09:23:07;;;;;;;2.90;0.70;;;;;;;;;;4979340;28;20030;-76
2023/07/27 09:25:33;;;;;;;1.95;0.65;;;21.00;99.90;;;;;;4982536;28;20042;-78
2023/07/27 09:27:59;;;;;;;2.30;0.75;;;;;;;;;;4980780;28;20525;-78
2023/07/27 09:30:25;;;;;;;1.75;0.80;;;21.20;99.90;;;;;;4988373;28;20034;-79
2023/07/27 09:32:52;;;;;;;3.65;0.50;;;20.80;99.90;;;;;;4983308;28;20507;-77
2023/07/27 09:35:20;;;;;;;4.95;1.13;;;21.00;99.90;;;;;;4980851;28;20056;-79
2023/07/27 09:37:48;;;;;;;2.30;0.57;;;20.60;99.90;;;;;;4988962;28;20687;-79
2023/07/27 09:40:22;;;;;;;1.50;0.50;;;20.10;99.90;;;;;;4984570;28;20034;-79
2023/07/27 09:42:48;;;;;;;1.92;1.10;;;;;;;;;;4975904;28;20104;-78
2023/07/27 09:45:15;;;;;;;1.63;0.68;;;;;;;;;;4983625;28;20422;-79
2023/07/27 09:47:41;;;;;;;2.08;0.65;;;;;;;;;;4991213;28;20046;-78
2023/07/27 09:50:08;;;;;;;2.13;0.95;;;20.20;99.90;;;;;;4981611;28;20490;-77
2023/07/27 09:52:37;;;;;;;4.60;1.10;;;19.20;99.90;;;;;;4986960;28;20168;-79
2023/07/27 09:55:02;;;;;;;4.53;0.88;;;19.50;99.90;;;;;;4990510;28;20033;-79
2023/07/27 09:57:29;;;;;;;4.43;0.98;;;;;;;;;;4993414;28;20031;-78
2023/07/27 09:59:55;;;;;;;1.35;0.47;;;;;;;;;;4989866;28;20034;-78
2023/07/27 10:02:22;;;;;;;4.22;0.80;;;19.20;99.90;;;;;;4969223;28;20030;-77
2023/07/27 10:04:51;;;;;;;2.63;0.95;;;18.70;99.90;;;;;;4975640;28;20104;-77
2023/07/27 10:07:21;;;;;;;4.43;0.63;;;19.10;99.90;;;;;;4973836;28;20192;-77
2023/07/27 10:09:47;;;;;;;5.57;0.85;;;;;;;;;;4977701;28;20092;-79
2023/07/27 10:12:29;;;;;;;1.55;0.93;;;18.70;99.90;;;;;;4964378;28;20077;-78
2023/07/27 10:15:27;;;;;;;1.88;0.73;;;18.20;99.90;;;;;;4979024;28;20030;-79
2023/07/27 10:17:56;;;;;;;2.00;0.80;;;17.80;99.90;;;;;;4969734;28;20041;-80
2023/07/27 10:20:28;;;;;;;3.10;0.77;;;18.10;99.90;;;;;;4980225;28;20030;-79
2023/07/27 10:23:20;;;;;;;3.03;0.60;;;17.30;99.90;;;;;;4981310;28;20038;-78
2023/07/27 10:25:57;;;;;;;1.77;0.50;;;17.10;99.90;;;;;;4973693;28;20329;-79
2023/07/27 10:28:29;;;;;;;1.70;0.85;;;16.90;99.90;;;;;;4965900;28;20900;-79
2023/07/27 10:31:13;;;;;;;0.82;0.55;;;17.70;99.90;;;;;;4986063;28;20030;-78
2023/07/27 10:33:39;;;;;;;2.40;1.13;;;;;;;;;;4982215;28;20513;-80
2023/07/27 10:36:06;;;;;;;1.98;0.82;;;;;;;;;;4981767;28;20459;-81
2023/07/27 10:38:33;;;;;;;1.33;0.70;;;;;;;;;;4979971;28;20044;-78
2023/07/27 10:41:12;;;;;;;3.80;1.15;;;16.70;99.90;;;;;;4970995;28;20046;-78
2023/07/27 10:43:38;;;;;;;1.73;0.95;;;;;;;;;;4968166;28;20038;-81
2023/07/27 10:46:21;;;;;;;1.83;0.98;;;17.30;99.90;;;;;;4963205;28;20054;-77
2023/07/27 10:48:57;;;;;;;1.85;0.93;;;17.40;99.90;;;;;;4973109;28;20042;-78
2023/07/27 10:51:25;;;;;;;1.27;0.57;;;17.40;99.90;;;;;;4968420;28;20153;-77
2023/07/27 10:53:51;;;;;;;2.10;0.90;;;;;;;;;;4987463;28;20041;-77
2023/07/27 10:56:17;;;;;;;1.50;0.88;;;;;;;;;;4982941;28;20022;-78
2023/07/27 10:58:44;;;;;;;2.22;0.68;;;17.40;99.90;;;;;;4986971;28;20034;-79
2023/07/27 11:01:11;;;;;;;2.05;0.60;;;;;;;;;;4960445;28;20037;-78
2023/07/27 11:03:37;;;;;;;1.85;0.80;;;;;;;;;;4971452;28;20056;-79
2023/07/27 11:06:03;;;;;;;0.85;0.50;;;18.10;99.90;;;;;;4983544;28;20042;-80
2023/07/27 11:08:29;;;;;;;4.07;0.55;;;;;;;;;;4990473;28;20038;-79
2023/07/27 11:10:55;;;;;;;2.15;0.77;;;;;;;;;;4988979;28;20026;-78
2023/07/27 11:13:24;;;;;;;3.47;1.00;;;18.60;99.90;;;;;;4982018;28;20125;-78
2023/07/27 11:15:55;;;;;;;1.45;0.77;;;19.00;99.90;;;;;;4964654;28;20048;-79
2023/07/27 11:18:22;;;;;;;2.72;1.08;;;;;;;;;;4964998;28;21200;-77
2023/07/27 11:20:48;;;;;;;1.35;0.77;;;;;;;;;;4965995;28;20430;-79
2023/07/27 11:23:14;;;;;;;2.80;1.05;;;;;;;;;;4981265;28;20116;-78
2023/07/27 11:25:40;;;;;;;3.35;0.63;;;;;;;;;;4971891;28;20088;-79
2023/07/27 11:28:06;;;;;;;2.13;0.88;;;;;;;;;;4979320;28;20039;-79
2023/07/27 11:30:35;;;;;;;2.33;0.95;;;19.70;99.90;;;;;;4974808;28;20045;-79
2023/07/27 11:33:02;;;;;;;4.90;0.88;;;19.50;99.90;;;;;;4972568;28;20042;-78
2023/07/27 11:35:28;;;;;;;1.25;0.52;;;;;;;;;;4978964;28;20038;-78
2023/07/27 11:37:54;;;;;;;3.03;1.52;;;;;;;;;;4977935;28;21371;-79
2023/07/27 11:40:21;;;;;;;2.28;0.88;;;20.50;99.90;;;;;;4979349;28;20014;-78
2023/07/27 11:42:47;;;;;;;1.73;0.88;;;;;;;;;;4970899;28;20030;-79
2023/07/27 11:45:13;;;;;;;1.52;1.00;;;;;;;;;;4971152;28;20030;-79
2023/07/27 11:47:39;;;;;;;4.70;1.35;;;19.70;99.90;;;;;;4979223;28;20035;-78
2023/07/27 11:50:10;;;;;;;1.73;0.70;;;20.00;99.90;;;;;;4977764;28;20516;-76
2023/07/27 11:55:09;;;;;;;2.15;0.70;;;;;;;;;;4995580;28;20069;-82
2023/07/27 11:57:35;;;;;;;1.42;0.63;;;;;;;;;;4984113;28;20084;-82
2023/07/27 12:00:13;;;;;;;2.90;0.82;;;20.20;99.90;;;;;;4998023;28;20092;-82
2023/07/27 12:02:40;;;;;;;1.60;0.68;;;20.30;99.90;;;;;;4982409;28;20104;-85
2023/07/27 12:05:13;;;;;;;5.10;0.88;;;19.90;99.90;;;;;;4987267;28;20025;-84
2023/07/27 12:07:40;;;;;;;11.10;1.20;;;;;;;;;;5003665;28;20018;-83
2023/07/27 12:10:06;;;;;;;3.63;0.70;;;;;;;;;;5009869;28;20080;-81
2023/07/27 12:12:33;;;;;;;3.05;0.65;;;;;;;;;;4993725;28;23478;-83
2023/07/27 12:15:00;;;;;;;2.70;0.93;;;;;;;;;;5004872;28;20052;-84
2023/07/27 12:17:26;;;;;;;4.63;0.75;;;;;;;;;;5016079;28;20054;-82
2023/07/27 12:19:52;;;;;;;3.22;0.75;;;;;;;;;;4997987;28;20541;-82
2023/07/27 12:22:19;;;;;;;1.75;0.88;;;;;;;;;;5008881;28;20065;-82
2023/07/27 12:24:45;;;;;;;2.20;0.93;;;19.00;99.90;;;;;;5005885;28;20030;-83
2023/07/27 12:27:11;;;;;;;2.03;0.90;;;;;;;;;;5010703;28;20368;-83
2023/07/27 12:29:37;;;;;;;3.42;0.82;;;;;;;;;;5002978;28;20102;-83
2023/07/27 12:32:04;;;;;;;5.68;0.70;;;;;;;;;;5006891;28;20049;-82
2023/07/27 12:34:35;;;;;;;3.00;1.35;;;;;;;;;;5006821;28;20031;-81
2023/07/27 12:37:01;;;;;;;1.83;0.80;;;;;;;;;;4994033;28;20038;-84
2023/07/27 12:39:28;;;;;;;1.90;0.75;;;;;;;;;;5000432;28;20091;-83
2023/07/27 12:41:54;;;;;;;2.15;0.77;;;;;;;;;;5009729;28;20028;-83
2023/07/27 12:44:20;;;;;;;2.15;0.70;;;;;;;;;;4994262;28;20026;-84
2023/07/27 12:46:46;;;;;;;3.03;0.95;;;;;;;;;;5010519;28;20038;-81
2023/07/27 12:49:12;;;;;;;3.10;1.33;;;;;;;;;;5010291;28;20048;-83
2023/07/27 12:51:38;;;;;;;4.40;1.17;;;;;;;;;;4997886;28;20173;-83
2023/07/27 12:54:06;;;;;;;2.80;1.02;;;;;;;;;;4980734;28;20069;-81
2023/07/27 12:56:32;;;;;;;3.08;1.15;;;;;;;;;;5019752;28;20057;-82
2023/07/27 12:58:58;;;;;;;4.00;1.00;;;;;;;;;;5023057;28;20086;-82
2023/07/27 13:01:23;;;;;;;1.38;0.73;;;;;;;;;;5018648;28;20045;-80
2023/07/27 13:03:49;;;;;;;1.90;0.95;;;;;;;;;;5019725;28;20094;-81
2023/07/27 13:06:15;;;;;;;3.10;0.93;;;;;;;;;;5019945;28;20027;-84
2023/07/27 13:08:43;;;;;;;3.17;0.80;;;;;;;;;;5023347;28;20033;-84
2023/07/27 13:11:09;;;;;;;4.30;0.90;;;;;;;;;;5018167;28;20068;-83
2023/07/27 13:13:35;;;;;;;4.15;0.95;;;;;;;;;;5013999;28;20022;-80
2023/07/27 13:16:01;;;;;;;1.73;0.80;;;;;;;;;;5014890;28;20034;-83
2023/07/27 13:18:27;;;;;;;2.33;1.20;;;;;;;;;;5013407;28;20649;-84
2023/07/27 13:20:53;;;;;;;1.70;0.85;;;;;;;;;;5017229;28;20344;-82
2023/07/27 13:23:19;;;;;;;1.45;0.80;;;;;;;;;;5008854;28;20041;-81
2023/07/27 13:25:45;;;;;;;2.05;0.90;;;;;;;;;;5020498;28;20030;-82
2023/07/27 13:28:11;;;;;;;2.13;0.80;;;;;;;;;;5005693;28;20038;-82
2023/07/27 13:30:37;;;;;;;2.15;0.90;;;;;;;;;;5009007;28;20040;-84
2023/07/27 13:33:03;;;;;;;4.25;0.90;;;;;;;;;;5023966;28;20026;-83
2023/07/27 13:35:29;;;;;;;2.65;0.95;;;;;;;;;;5018566;28;20034;-82
2023/07/27 13:37:55;;;;;;;3.95;0.90;;;;;;;;;;5016656;28;20029;-82
2023/07/27 13:40:20;;;;;;;2.05;0.85;;;;;;;;;;5010065;28;20028;-82
2023/07/27 13:42:47;;;;;;;1.48;1.02;;;;;;;;;;5016603;28;20049;-85
2023/07/27 13:45:13;;;;;;;3.90;1.17;;;;;;;;;;5019019;28;20124;-83
2023/07/27 13:47:39;;;;;;;2.15;0.77;;;;;;;;;;5020409;28;20037;-83
2023/07/27 13:50:05;;;;;;;7.25;1.05;;;;;;;;;;5015555;28;20045;-83
2023/07/27 13:52:31;;;;;;;1.23;0.75;;;;;;;;;;5017765;28;20013;-82
2023/07/27 13:54:57;;;;;;;2.17;0.70;;;;;;;;;;5008708;28;20041;-83
2023/07/27 13:57:23;;;;;;;3.42;1.35;;;;;;;;;;5017283;28;20057;-82
2023/07/27 13:59:49;;;;;;;3.88;1.35;;;;;;;;;;5016768;28;20030;-82
2023/07/27 14:02:15;;;;;;;3.15;0.95;;;;;;;;;;5011537;28;20425;-83
2023/07/27 14:04:42;;;;;;;1.70;0.80;;;;;;;;;;5026671;28;20097;-83
2023/07/27 14:07:08;;;;;;;3.50;1.67;;;;;;;;;;5013366;28;20065;-84
2023/07/27 14:09:34;;;;;;;2.88;1.15;;;;;;;;;;5005656;28;20026;-85
2023/07/27 14:12:00;;;;;;;3.03;1.08;;;;;;;;;;5011059;28;20256;-82
2023/07/27 14:14:26;;;;;;;2.17;0.82;;;;;;;;;;4999119;28;20025;-84
2023/07/27 14:16:52;;;;;;;3.55;1.40;;;;;;;;;;4999118;28;20065;-84
2023/07/27 14:19:18;;;;;;;2.75;1.10;;;;;;;;;;4997659;28;20065;-84